createdAt,value
2019-05-03T00:01:12.859Z,59.11
2019-05-03T00:03:13.849Z,58.71
2019-05-03T00:05:21.997Z,58.61
2019-05-03T00:07:22.772Z,58.69
2019-05-03T00:09:24.357Z,58.85
2019-05-03T00:11:26.008Z,59.22
2019-05-03T00:13:27.587Z,59.53
2019-05-03T00:15:32.312Z,59.88
2019-05-03T00:17:32.660Z,59.94
2019-05-03T00:19:34.262Z,59.80
2019-05-03T00:21:35.901Z,59.54
2019-05-03T00:23:37.488Z,59.36
2019-05-03T00:25:39.097Z,59.33
2019-05-03T00:27:42.623Z,59.36
2019-05-03T00:29:42.414Z,59.10
2019-05-03T00:31:44.004Z,59.23
2019-05-03T00:33:45.608Z,59.29
2019-05-03T00:35:52.710Z,59.16
2019-05-03T00:37:55.284Z,59.50
2019-05-03T00:39:57.764Z,59.57
2019-05-03T00:41:59.358Z,59.69
2019-05-03T00:44:02.253Z,59.91
2019-05-03T00:46:02.647Z,60.34
2019-05-03T00:48:04.276Z,60.87
2019-05-03T00:50:05.878Z,60.59
2019-05-03T00:52:07.483Z,60.59
2019-05-03T00:54:09.077Z,60.58
2019-05-03T00:56:12.245Z,60.69
2019-05-03T00:58:12.388Z,60.39
2019-05-03T01:00:13.982Z,60.66
2019-05-03T01:02:15.558Z,60.87
2019-05-03T01:04:17.144Z,61.10
2019-05-03T01:06:18.727Z,61.13
2019-05-03T01:08:22.018Z,61.40
2019-05-03T01:10:22.631Z,61.72
2019-05-03T01:12:23.734Z,62.12
2019-05-03T01:14:25.319Z,62.10
2019-05-03T01:16:26.890Z,62.46
2019-05-03T01:18:28.494Z,62.39
2019-05-03T01:20:31.883Z,62.00
2019-05-03T01:22:32.208Z,61.93
2019-05-03T01:24:33.404Z,62.15
2019-05-03T01:26:35.016Z,61.82
2019-05-03T01:28:36.685Z,61.89
2019-05-03T01:30:38.286Z,61.72
2019-05-03T01:32:41.724Z,61.77
2019-05-03T01:34:41.733Z,62.10
2019-05-03T01:36:43.354Z,62.38
2019-05-03T01:38:44.996Z,62.85
2019-05-03T01:40:46.620Z,63.05
2019-05-03T01:42:48.204Z,62.90
2019-05-03T01:44:49.845Z,62.96
2019-05-03T01:46:51.655Z,62.77
2019-05-03T01:48:53.136Z,62.59
2019-05-03T01:50:57.215Z,62.52
2019-05-03T01:52:59.546Z,62.25
2019-05-03T01:55:03.366Z,62.39
2019-05-03T01:57:02.790Z,62.31
2019-05-03T01:59:04.408Z,61.90
2019-05-03T02:01:08.539Z,61.79
2019-05-03T02:03:12.261Z,61.88
2019-05-03T02:05:17.981Z,61.71
2019-05-03T02:07:19.586Z,61.36
2019-05-03T02:09:21.652Z,61.45
2019-05-03T02:11:22.896Z,60.97
2019-05-03T02:13:24.516Z,61.33
2019-05-03T02:15:26.119Z,61.30
2019-05-03T02:17:27.702Z,60.93
2019-05-03T02:19:29.320Z,60.57
2019-05-03T02:21:32.218Z,60.69
2019-05-03T02:23:32.597Z,60.52
2019-05-03T02:25:34.216Z,60.60
2019-05-03T02:27:35.804Z,60.78
2019-05-03T02:29:37.392Z,61.36
2019-05-03T02:31:38.979Z,61.04
2019-05-03T02:33:43.174Z,61.02
2019-05-03T02:35:42.946Z,61.12
2019-05-03T02:37:44.075Z,61.01
2019-05-03T02:39:45.536Z,61.00
2019-05-03T02:41:49.500Z,61.32
2019-05-03T02:43:49.644Z,61.08
2019-05-03T02:45:51.856Z,61.04
2019-05-03T02:47:55.443Z,60.92
2019-05-03T02:49:56.184Z,61.17
2019-05-03T02:51:57.424Z,61.22
2019-05-03T02:53:59.053Z,61.39
2019-05-03T02:56:13.664Z,61.23
2019-05-03T02:58:02.299Z,61.28
2019-05-03T03:00:05.073Z,61.49
2019-05-03T03:02:06.417Z,61.26
2019-05-03T03:04:07.251Z,61.30
2019-05-03T03:06:08.861Z,61.48
2019-05-03T03:08:10.449Z,61.52
2019-05-03T03:10:12.084Z,61.18
2019-05-03T03:12:15.241Z,61.56
2019-05-03T03:14:16.759Z,61.74
2019-05-03T03:16:20.495Z,61.46
2019-05-03T03:18:18.645Z,61.49
2019-05-03T03:20:20.271Z,61.54
2019-05-03T03:22:21.874Z,61.69
2019-05-03T03:24:25.855Z,61.72
2019-05-03T03:26:34.455Z,61.53
2019-05-03T03:28:26.778Z,61.70
2019-05-03T03:30:32.401Z,61.75
2019-05-03T03:32:38.550Z,61.53
2019-05-03T03:34:38.655Z,61.51
2019-05-03T03:36:54.494Z,61.60
2019-05-03T03:38:38.961Z,61.53
2019-05-03T03:40:40.564Z,61.39
2019-05-03T03:42:42.149Z,61.25
2019-05-03T03:44:45.395Z,61.30
2019-05-03T03:46:45.583Z,61.16
2019-05-03T03:48:47.099Z,61.16
2019-05-03T03:50:48.685Z,61.03
2019-05-03T03:52:50.307Z,61.11
2019-05-03T03:54:51.920Z,61.00
2019-05-03T03:57:01.559Z,61.01
2019-05-03T03:58:55.643Z,60.98
2019-05-03T04:00:56.843Z,61.13
2019-05-03T04:02:58.425Z,61.00
2019-05-03T04:05:00.054Z,60.94
2019-05-03T04:07:01.739Z,61.04
2019-05-03T04:09:05.186Z,61.06
2019-05-03T04:11:06.276Z,61.02
2019-05-03T04:13:06.713Z,61.06
2019-05-03T04:15:27.040Z,61.25
2019-05-03T04:17:36.107Z,61.26
2019-05-03T04:19:36.559Z,61.11
2019-05-03T04:21:38.016Z,61.02
2019-05-03T04:23:39.640Z,61.58
2019-05-03T04:25:41.230Z,61.36
2019-05-03T04:27:45.336Z,61.31
2019-05-03T04:29:45.391Z,61.79
2019-05-03T04:31:46.161Z,62.07
2019-05-03T04:33:47.812Z,61.99
2019-05-03T04:35:49.404Z,61.92
2019-05-03T04:37:51.008Z,62.13
2019-05-03T04:39:52.620Z,62.30
2019-05-03T04:41:55.931Z,62.84
2019-05-03T04:43:55.907Z,62.68
2019-05-03T04:46:00.985Z,62.78
2019-05-03T04:48:05.720Z,62.73
2019-05-03T04:50:05.573Z,62.97
2019-05-03T04:52:06.201Z,62.92
2019-05-03T04:54:25.690Z,63.02
2019-05-03T04:56:27.093Z,63.17
2019-05-03T04:58:28.676Z,63.28
2019-05-03T05:00:30.303Z,63.13
2019-05-03T05:02:31.896Z,63.13
2019-05-03T05:04:35.754Z,63.07
2019-05-03T05:06:35.233Z,63.03
2019-05-03T05:08:36.822Z,63.32
2019-05-03T05:10:38.468Z,63.25
2019-05-03T05:12:40.074Z,62.98
2019-05-03T05:14:41.675Z,63.47
2019-05-03T05:16:46.229Z,63.45
2019-05-03T05:18:45.749Z,63.43
2019-05-03T05:21:00.516Z,63.27
2019-05-03T05:23:02.123Z,63.25
2019-05-03T05:25:04.522Z,63.06
2019-05-03T05:27:06.220Z,62.89
2019-05-03T05:29:07.823Z,63.13
2019-05-03T05:31:09.431Z,63.04
2019-05-03T05:33:25.762Z,63.04
2019-05-03T05:35:27.342Z,63.08
2019-05-03T05:37:28.967Z,63.11
2019-05-03T05:39:30.568Z,63.18
2019-05-03T05:41:32.156Z,63.26
2019-05-03T05:43:35.558Z,63.27
2019-05-03T05:45:35.451Z,63.06
2019-05-03T05:47:37.519Z,63.15
2019-05-03T05:49:41.687Z,62.99
2019-05-03T05:51:44.475Z,63.02
2019-05-03T05:53:44.973Z,62.98
2019-05-03T05:56:02.355Z,62.90
2019-05-03T05:58:08.019Z,62.83
2019-05-03T06:00:09.989Z,62.89
2019-05-03T06:02:11.596Z,63.34
2019-05-03T06:04:15.267Z,63.32
2019-05-03T06:06:20.542Z,63.27
2019-05-03T06:08:35.382Z,63.21
2019-05-03T06:10:45.463Z,63.26
2019-05-03T06:12:48.468Z,62.92
2019-05-03T06:14:51.974Z,63.32
2019-05-03T06:16:56.243Z,63.24
2019-05-03T06:18:57.833Z,62.95
2019-05-03T06:21:15.238Z,62.89
2019-05-03T06:23:16.815Z,62.63
2019-05-03T06:25:21.859Z,62.61
2019-05-03T06:27:24.428Z,62.73
2019-05-03T06:29:25.600Z,62.62
2019-05-03T06:31:27.184Z,62.51
2019-05-03T06:33:28.787Z,62.44
2019-05-03T06:35:30.395Z,62.57
2019-05-03T06:37:32.004Z,62.51
2019-05-03T06:39:35.225Z,62.52
2019-05-03T06:41:35.314Z,62.73
2019-05-03T06:43:39.580Z,62.45
2019-05-03T06:45:41.073Z,62.45
2019-05-03T06:47:44.831Z,62.69
2019-05-03T06:49:46.771Z,62.58
2019-05-03T06:51:45.705Z,62.50
2019-05-03T06:53:47.575Z,62.69
2019-05-03T06:55:48.439Z,63.04
2019-05-03T06:57:49.714Z,62.76
2019-05-03T06:59:54.904Z,63.21
2019-05-03T07:02:05.644Z,62.92
2019-05-03T07:04:06.767Z,63.26
2019-05-03T07:06:15.002Z,62.70
2019-05-03T07:08:25.340Z,62.39
2019-05-03T07:10:40.414Z,61.94
2019-05-03T07:12:47.764Z,62.32
2019-05-03T07:14:50.548Z,62.61
2019-05-03T07:16:51.139Z,62.74
2019-05-03T07:18:55.870Z,62.76
2019-05-03T07:20:57.082Z,62.98
2019-05-03T07:22:56.939Z,62.91
2019-05-03T07:24:58.548Z,62.82
2019-05-03T07:27:00.155Z,62.73
2019-05-03T07:29:01.752Z,62.98
2019-05-03T07:31:04.830Z,62.79
2019-05-03T07:33:05.541Z,62.73
2019-05-03T07:35:07.151Z,62.78
2019-05-03T07:37:08.784Z,62.91
2019-05-03T07:39:10.372Z,62.97
2019-05-03T07:41:11.958Z,62.49
2019-05-03T07:43:14.875Z,62.66
2019-05-03T07:45:15.260Z,62.48
2019-05-03T07:47:16.848Z,62.48
2019-05-03T07:49:18.430Z,62.55
2019-05-03T07:51:20.017Z,62.01
2019-05-03T07:53:21.590Z,61.95
2019-05-03T07:55:24.881Z,61.54
2019-05-03T07:57:30.850Z,60.79
2019-05-03T07:59:32.496Z,61.13
2019-05-03T08:01:35.605Z,61.35
2019-05-03T08:03:35.805Z,61.39
2019-05-03T08:05:37.416Z,61.41
2019-05-03T08:07:39.030Z,61.38
2019-05-03T08:09:40.680Z,61.42
2019-05-03T08:11:44.321Z,61.41
2019-05-03T08:13:44.663Z,61.33
2019-05-03T08:15:45.603Z,61.29
2019-05-03T08:17:47.192Z,61.17
2019-05-03T08:19:48.807Z,61.09
2019-05-03T08:21:50.514Z,61.05
2019-05-03T08:23:52.140Z,60.92
2019-05-03T08:25:55.620Z,60.77
2019-05-03T08:27:55.400Z,60.75
2019-05-03T08:29:57.012Z,60.27
2019-05-03T08:32:05.027Z,60.26
2019-05-03T08:34:08.600Z,60.11
2019-05-03T08:36:10.200Z,60.10
2019-05-03T08:38:11.784Z,60.00
2019-05-03T08:40:15.453Z,59.90
2019-05-03T08:42:15.077Z,59.85
2019-05-03T08:44:16.664Z,59.79
2019-05-03T08:46:18.272Z,59.59
2019-05-03T08:48:19.883Z,59.43
2019-05-03T08:50:21.811Z,59.38
2019-05-03T08:52:24.830Z,59.29
2019-05-03T08:54:25.556Z,59.25
2019-05-03T08:56:26.468Z,59.17
2019-05-03T08:58:28.056Z,59.18
2019-05-03T09:00:29.630Z,59.13
2019-05-03T09:02:31.240Z,58.98
2019-05-03T09:04:37.478Z,59.00
2019-05-03T09:06:35.449Z,58.88
2019-05-03T09:08:36.210Z,58.84
2019-05-03T09:10:38.744Z,58.98
2019-05-03T09:12:46.119Z,55.27
2019-05-03T09:14:48.474Z,48.13
2019-05-03T09:16:49.390Z,46.34
2019-05-03T09:18:50.976Z,45.18
2019-05-03T09:20:52.572Z,45.42
2019-05-03T09:22:54.961Z,49.75
2019-05-03T09:24:55.864Z,49.26
2019-05-03T09:26:57.467Z,49.23
2019-05-03T09:28:59.057Z,49.42
2019-05-03T09:31:00.641Z,49.95
2019-05-03T09:33:02.227Z,50.15
2019-05-03T09:35:05.528Z,50.59
2019-05-03T09:37:05.496Z,50.83
2019-05-03T09:39:07.083Z,51.00
2019-05-03T09:41:08.722Z,51.17
2019-05-03T09:43:10.336Z,51.35
2019-05-03T09:45:11.948Z,51.51
2019-05-03T09:47:14.667Z,51.74
2019-05-03T09:49:16.580Z,51.80
2019-05-03T09:51:16.926Z,52.01
2019-05-03T09:53:18.512Z,52.17
2019-05-03T09:55:35.517Z,52.27
2019-05-03T09:57:36.643Z,52.29
2019-05-03T09:59:38.252Z,52.30
2019-05-03T10:01:39.892Z,52.40
2019-05-03T10:03:41.532Z,52.40
2019-05-03T10:05:45.670Z,52.57
2019-05-03T10:07:45.601Z,52.82
2019-05-03T10:09:46.777Z,53.08
2019-05-03T10:11:48.354Z,53.29
2019-05-03T10:13:49.966Z,53.47
2019-05-03T10:15:51.581Z,53.73
2019-05-03T10:17:55.313Z,53.87
2019-05-03T10:19:54.884Z,53.96
2019-05-03T10:21:56.491Z,54.06
2019-05-03T10:23:58.099Z,54.17
2019-05-03T10:25:59.708Z,54.31
2019-05-03T10:28:01.349Z,54.30
2019-05-03T10:30:10.443Z,54.33
2019-05-03T10:32:22.543Z,54.42
2019-05-03T10:34:24.837Z,54.39
2019-05-03T10:36:25.824Z,54.50
2019-05-03T10:38:27.436Z,54.55
2019-05-03T10:40:29.072Z,54.60
2019-05-03T10:42:30.664Z,54.61
2019-05-03T10:44:32.287Z,54.60
2019-05-03T10:46:34.477Z,54.77
2019-05-03T10:48:35.706Z,54.56
2019-05-03T10:50:37.225Z,54.42
2019-05-03T10:52:39.603Z,54.26
2019-05-03T10:54:41.213Z,54.15
2019-05-03T10:56:45.079Z,54.16
2019-05-03T10:58:45.262Z,54.29
2019-05-03T11:00:52.834Z,54.34
2019-05-03T11:02:48.413Z,54.36
2019-05-03T11:04:50.020Z,54.27
2019-05-03T11:06:51.627Z,54.30
2019-05-03T11:08:54.635Z,54.29
2019-05-03T11:10:55.059Z,54.36
2019-05-03T11:12:56.623Z,54.29
2019-05-03T11:14:58.212Z,54.31
2019-05-03T11:17:00.641Z,54.32
2019-05-03T11:19:01.402Z,54.44
2019-05-03T11:21:05.142Z,54.58
2019-05-03T11:23:05.973Z,54.36
2019-05-03T11:25:06.287Z,54.39
2019-05-03T11:27:10.491Z,54.54
2019-05-03T11:29:12.100Z,54.76
2019-05-03T11:31:32.479Z,54.91
2019-05-03T11:33:35.320Z,55.05
2019-05-03T11:35:38.220Z,55.13
2019-05-03T11:37:53.700Z,55.12
2019-05-03T11:39:55.835Z,55.19
2019-05-03T11:41:56.953Z,55.20
2019-05-03T11:43:58.551Z,55.12
2019-05-03T11:46:00.158Z,55.06
2019-05-03T11:48:01.738Z,55.00
2019-05-03T11:50:03.326Z,55.03
2019-05-03T11:52:06.458Z,55.11
2019-05-03T11:54:06.669Z,55.12
2019-05-03T11:56:08.288Z,55.11
2019-05-03T11:58:15.651Z,55.23
2019-05-03T12:00:17.233Z,55.23
2019-05-03T12:02:19.764Z,55.19
2019-05-03T12:04:21.342Z,55.11
2019-05-03T12:06:24.862Z,55.04
2019-05-03T12:08:25.301Z,54.85
2019-05-03T12:10:44.827Z,54.78
2019-05-03T12:12:29.534Z,54.71
2019-05-03T12:14:30.461Z,54.59
2019-05-03T12:17:08.612Z,54.54
2019-05-03T12:18:47.688Z,54.55
2019-05-03T12:20:37.106Z,54.46
2019-05-03T12:22:37.654Z,54.46
2019-05-03T12:24:39.491Z,54.41
2019-05-03T12:26:44.051Z,54.42
2019-05-03T12:28:44.634Z,54.43
2019-05-03T12:30:44.938Z,54.42
2019-05-03T12:32:45.476Z,54.42
2019-05-03T12:34:47.082Z,54.40
2019-05-03T12:36:51.149Z,54.37
2019-05-03T12:38:50.333Z,54.29
2019-05-03T12:40:51.924Z,54.26
2019-05-03T12:42:55.287Z,54.28
2019-05-03T12:44:55.244Z,54.20
2019-05-03T12:46:56.851Z,54.12
2019-05-03T12:48:58.471Z,54.05
2019-05-03T12:51:00.427Z,54.02
2019-05-03T12:53:01.715Z,54.19
2019-05-03T12:55:04.558Z,54.35
2019-05-03T12:57:05.213Z,54.44
2019-05-03T12:59:06.651Z,54.53
2019-05-03T13:01:09.034Z,54.50
2019-05-03T13:03:15.196Z,54.59
2019-05-03T13:05:15.532Z,54.62
2019-05-03T13:07:31.575Z,54.73
2019-05-03T13:09:33.159Z,54.77
2019-05-03T13:11:36.542Z,54.69
2019-05-03T13:13:36.468Z,54.74
2019-05-03T13:15:38.052Z,54.68
2019-05-03T13:17:39.664Z,54.23
2019-05-03T13:19:41.256Z,54.29
2019-05-03T13:21:44.882Z,54.17
2019-05-03T13:23:45.304Z,54.13
2019-05-03T13:25:46.177Z,54.47
2019-05-03T13:27:47.817Z,54.70
2019-05-03T13:29:49.435Z,54.40
2019-05-03T13:32:00.830Z,54.23
2019-05-03T13:33:54.765Z,54.25
2019-05-03T13:35:55.173Z,54.16
2019-05-03T13:37:56.017Z,54.30
2019-05-03T13:39:57.654Z,54.35
2019-05-03T13:41:59.240Z,54.59
2019-05-03T13:44:00.860Z,54.68
2019-05-03T13:46:02.447Z,54.81
2019-05-03T13:48:05.002Z,54.96
2019-05-03T13:50:05.689Z,55.03
2019-05-03T13:52:07.295Z,55.08
2019-05-03T13:54:08.931Z,55.05
2019-05-03T13:56:10.566Z,54.98
2019-05-03T13:58:12.181Z,54.89
2019-05-03T14:00:15.245Z,54.60
2019-05-03T14:02:19.130Z,54.10
2019-05-03T14:04:17.144Z,53.76
2019-05-03T14:06:18.780Z,53.60
2019-05-03T14:08:20.397Z,53.44
2019-05-03T14:10:22.071Z,53.33
2019-05-03T14:12:24.437Z,53.60
2019-05-03T14:14:25.847Z,53.81
2019-05-03T14:16:27.008Z,53.99
2019-05-03T14:18:28.629Z,54.12
2019-05-03T14:20:46.142Z,54.20
2019-05-03T14:22:48.330Z,54.36
2019-05-03T14:24:49.940Z,54.43
2019-05-03T14:26:51.536Z,54.48
2019-05-03T14:28:54.843Z,54.47
2019-05-03T14:30:54.964Z,54.33
2019-05-03T14:32:56.516Z,54.37
2019-05-03T14:34:58.100Z,54.38
2019-05-03T14:36:59.684Z,54.34
2019-05-03T14:39:01.273Z,54.29
2019-05-03T14:41:05.368Z,54.09
2019-05-03T14:43:04.858Z,54.19
2019-05-03T14:45:06.202Z,54.26
2019-05-03T14:47:07.783Z,54.36
2019-05-03T14:49:09.394Z,54.42
2019-05-03T14:51:10.989Z,54.49
2019-05-03T14:53:14.639Z,54.54
2019-05-03T14:55:15.265Z,54.51
2019-05-03T14:57:16.892Z,54.44
2019-05-03T14:59:34.661Z,54.46
2019-05-03T15:01:38.047Z,54.28
2019-05-03T15:03:39.680Z,54.06
2019-05-03T15:05:41.278Z,53.94
2019-05-03T15:07:42.878Z,53.80
2019-05-03T15:09:45.856Z,53.68
2019-05-03T15:11:46.202Z,53.63
2019-05-03T15:13:47.816Z,53.61
2019-05-03T15:15:49.427Z,53.56
2019-05-03T15:17:51.016Z,53.56
2019-05-03T15:19:54.578Z,53.58
2019-05-03T15:21:54.779Z,53.61
2019-05-03T15:23:55.934Z,53.57
2019-05-03T15:25:57.527Z,53.55
2019-05-03T15:27:59.168Z,53.42
2019-05-03T15:30:00.756Z,53.42
2019-05-03T15:32:04.860Z,53.42
2019-05-03T15:34:04.626Z,53.44
2019-05-03T15:36:05.671Z,53.42
2019-05-03T15:38:07.284Z,53.41
2019-05-03T15:40:08.896Z,53.42
2019-05-03T15:42:10.532Z,53.42
2019-05-03T15:44:16.632Z,53.41
2019-05-03T15:46:20.648Z,53.41
2019-05-03T15:48:24.437Z,53.46
2019-05-03T15:50:25.130Z,52.95
2019-05-03T15:52:25.612Z,52.98
2019-05-03T15:54:27.223Z,52.43
2019-05-03T15:56:28.831Z,52.40
2019-05-03T15:58:30.468Z,52.48
2019-05-03T16:00:32.078Z,52.54
2019-05-03T16:02:35.164Z,52.64
2019-05-03T16:04:35.750Z,52.69
2019-05-03T16:06:37.012Z,52.73
2019-05-03T16:08:38.583Z,52.83
2019-05-03T16:10:40.238Z,52.95
2019-05-03T16:12:41.843Z,52.99
2019-05-03T16:14:44.542Z,53.01
2019-05-03T16:16:45.272Z,52.99
2019-05-03T16:18:46.856Z,53.03
2019-05-03T16:20:48.465Z,53.08
2019-05-03T16:22:50.088Z,53.06
2019-05-03T16:24:51.697Z,52.96
2019-05-03T16:26:59.061Z,53.00
2019-05-03T16:29:04.559Z,52.94
2019-05-03T16:31:05.105Z,52.91
2019-05-03T16:33:06.286Z,52.88
2019-05-03T16:35:07.939Z,52.91
2019-05-03T16:37:09.515Z,52.87
2019-05-03T16:39:11.123Z,52.85
2019-05-03T16:41:12.753Z,52.82
2019-05-03T16:43:16.163Z,52.81
2019-05-03T16:45:17.071Z,52.84
2019-05-03T16:47:17.701Z,52.89
2019-05-03T16:49:19.312Z,52.92
2019-05-03T16:51:20.952Z,53.01
2019-05-03T16:53:22.565Z,53.14
2019-05-03T16:55:25.673Z,53.20
2019-05-03T16:57:25.864Z,53.21
2019-05-03T16:59:27.448Z,53.23
2019-05-03T17:01:29.055Z,53.23
2019-05-03T17:03:38.502Z,53.26
2019-05-03T17:05:34.825Z,53.30
2019-05-03T17:07:37.920Z,53.30
2019-05-03T17:09:40.254Z,53.35
2019-05-03T17:11:41.876Z,53.41
2019-05-03T17:13:45.685Z,53.47
2019-05-03T17:15:45.128Z,53.42
2019-05-03T17:17:46.736Z,53.53
2019-05-03T17:19:48.330Z,53.56
2019-05-03T17:21:49.922Z,53.69
2019-05-03T17:23:51.535Z,53.72
2019-05-03T17:25:53.143Z,53.82
2019-05-03T17:27:54.801Z,53.90
2019-05-03T17:29:56.390Z,53.85
2019-05-03T17:31:57.984Z,53.90
2019-05-03T17:33:59.600Z,54.00
2019-05-03T17:36:01.187Z,54.08
2019-05-03T17:38:02.774Z,54.15
2019-05-03T17:40:07.903Z,54.26
2019-05-03T17:42:19.432Z,54.34
2019-05-03T17:44:21.842Z,54.31
2019-05-03T17:46:25.409Z,54.33
2019-05-03T17:48:25.079Z,54.25
2019-05-03T17:50:26.729Z,54.10
2019-05-03T17:52:37.893Z,54.00
2019-05-03T17:54:57.211Z,53.93
2019-05-03T17:57:04.569Z,53.80
2019-05-03T17:59:06.049Z,53.69
2019-05-03T18:01:13.366Z,53.60
2019-05-03T18:03:14.973Z,53.52
2019-05-03T18:05:22.221Z,53.46
2019-05-03T18:07:24.327Z,53.35
2019-05-03T18:09:35.360Z,53.24
2019-05-03T18:11:38.619Z,53.16
2019-05-03T18:13:40.211Z,53.12
2019-05-03T18:15:41.819Z,53.00
2019-05-03T18:17:44.488Z,52.96
2019-05-03T18:19:47.627Z,52.96
2019-05-03T18:21:46.768Z,52.92
2019-05-03T18:23:48.354Z,52.90
2019-05-03T18:25:49.947Z,52.87
2019-05-03T18:27:51.537Z,52.80
2019-05-03T18:29:53.149Z,52.86
2019-05-03T18:31:55.047Z,52.83
2019-05-03T18:33:56.412Z,52.79
2019-05-03T18:35:57.987Z,52.83
2019-05-03T18:37:59.573Z,52.87
2019-05-03T18:40:01.154Z,52.91
2019-05-03T18:42:02.761Z,52.92
2019-05-03T18:44:09.970Z,52.95
2019-05-03T18:46:17.158Z,53.03
2019-05-03T18:48:18.768Z,53.12
2019-05-03T18:50:20.359Z,53.21
2019-05-03T18:52:21.935Z,53.29
2019-05-03T18:54:24.603Z,53.30
2019-05-03T18:56:25.297Z,53.37
2019-05-03T18:58:26.856Z,53.38
2019-05-03T19:00:28.458Z,53.31
2019-05-03T19:02:30.072Z,53.36
2019-05-03T19:04:47.440Z,53.39
2019-05-03T19:06:55.900Z,53.36
2019-05-03T19:09:06.333Z,53.29
2019-05-03T19:11:10.449Z,53.11
2019-05-03T19:13:15.916Z,52.01
2019-05-03T19:15:17.547Z,52.18
2019-05-03T19:17:29.949Z,52.10
2019-05-03T19:19:32.275Z,51.63
2019-05-03T19:21:35.025Z,52.16
2019-05-03T19:23:35.614Z,52.28
2019-05-03T19:25:45.874Z,52.60
2019-05-03T19:27:38.835Z,52.57
2019-05-03T19:29:40.407Z,53.07
2019-05-03T19:31:42.007Z,53.75
2019-05-03T19:33:45.562Z,53.24
2019-05-03T19:35:45.318Z,53.07
2019-05-03T19:37:46.932Z,53.29
2019-05-03T19:39:48.551Z,53.13
2019-05-03T19:41:50.132Z,53.26
2019-05-03T19:43:51.716Z,53.28
2019-05-03T19:45:53.342Z,53.21
2019-05-03T19:47:55.333Z,52.92
2019-05-03T19:49:56.667Z,53.12
2019-05-03T19:51:58.271Z,52.73
2019-05-03T19:54:00.045Z,52.77
2019-05-03T19:56:01.810Z,52.98
2019-05-03T19:58:05.491Z,53.19
2019-05-03T20:00:05.518Z,52.85
2019-05-03T20:02:07.420Z,53.56
2019-05-03T20:04:24.508Z,53.95
2019-05-03T20:06:30.550Z,53.71
2019-05-03T20:08:35.073Z,53.24
2019-05-03T20:10:35.314Z,53.37
2019-05-03T20:12:36.970Z,53.85
2019-05-03T20:14:39.835Z,53.25
2019-05-03T20:16:41.576Z,52.57
2019-05-03T20:18:45.328Z,52.36
2019-05-03T20:20:44.908Z,52.22
2019-05-03T20:22:47.757Z,52.39
2019-05-03T20:24:48.268Z,52.98
2019-05-03T20:26:49.871Z,53.61
2019-05-03T20:28:51.523Z,53.60
2019-05-03T20:30:54.503Z,53.10
2019-05-03T20:32:55.531Z,52.48
2019-05-03T20:34:56.438Z,52.19
2019-05-03T20:36:58.024Z,52.52
2019-05-03T20:38:59.671Z,53.08
2019-05-03T20:41:01.261Z,51.77
2019-05-03T20:43:17.734Z,52.18
2019-05-03T20:45:22.188Z,53.15
2019-05-03T20:47:25.324Z,53.05
2019-05-03T20:49:25.883Z,52.92
2019-05-03T20:51:27.486Z,52.78
2019-05-03T20:53:29.114Z,53.65
2019-05-03T20:55:30.701Z,51.53
2019-05-03T20:57:32.317Z,52.98
2019-05-03T20:59:44.848Z,53.16
2019-05-03T21:01:35.576Z,52.75
2019-05-03T21:03:37.163Z,52.64
2019-05-03T21:05:38.810Z,53.07
2019-05-03T21:07:40.443Z,52.28
2019-05-03T21:09:42.107Z,52.84
2019-05-03T21:11:44.804Z,52.80
2019-05-03T21:13:45.347Z,52.74
2019-05-03T21:15:47.439Z,52.63
2019-05-03T21:18:04.982Z,53.10
2019-05-03T21:20:16.448Z,53.10
2019-05-03T21:22:18.092Z,53.05
2019-05-03T21:24:23.607Z,52.85
2019-05-03T21:26:25.295Z,53.01
2019-05-03T21:28:25.177Z,53.41
2019-05-03T21:30:26.412Z,53.41
2019-05-03T21:32:28.001Z,53.28
2019-05-03T21:34:29.574Z,53.45
2019-05-03T21:36:31.184Z,52.83
2019-05-03T21:38:32.828Z,53.09
2019-05-03T21:40:34.905Z,53.18
2019-05-03T21:42:36.065Z,53.30
2019-05-03T21:44:37.708Z,53.44
2019-05-03T21:46:47.960Z,53.35
2019-05-03T21:49:00.348Z,52.80
2019-05-03T21:51:01.991Z,53.82
2019-05-03T21:53:05.639Z,54.18
2019-05-03T21:55:05.534Z,53.68
2019-05-03T21:57:06.872Z,53.42
2019-05-03T21:59:08.502Z,53.50
2019-05-03T22:01:10.114Z,53.67
2019-05-03T22:03:11.723Z,53.87
2019-05-03T22:05:14.253Z,53.05
2019-05-03T22:07:15.015Z,53.40
2019-05-03T22:09:16.632Z,53.27
2019-05-03T22:11:18.220Z,53.06
2019-05-03T22:13:19.804Z,52.98
2019-05-03T22:15:26.446Z,52.95
2019-05-03T22:17:34.429Z,53.01
2019-05-03T22:19:34.443Z,52.90
2019-05-03T22:21:51.720Z,53.39
2019-05-03T22:23:55.285Z,53.20
2019-05-03T22:25:57.025Z,53.82
2019-05-03T22:27:58.556Z,53.72
2019-05-03T22:30:00.186Z,53.83
2019-05-03T22:32:01.783Z,53.53
2019-05-03T22:34:04.567Z,54.33
2019-05-03T22:36:08.562Z,53.77
2019-05-03T22:38:06.678Z,53.48
2019-05-03T22:40:08.291Z,53.70
2019-05-03T22:42:09.863Z,53.76
2019-05-03T22:44:11.448Z,53.57
2019-05-03T22:46:14.564Z,53.79
2019-05-03T22:48:14.691Z,53.83
2019-05-03T22:50:16.336Z,53.74
2019-05-03T22:52:17.924Z,53.56
2019-05-03T22:54:19.522Z,53.95
2019-05-03T22:56:21.166Z,53.76
2019-05-03T22:58:24.729Z,53.35
2019-05-03T23:00:25.191Z,53.55
2019-05-03T23:02:26.104Z,53.99
2019-05-03T23:04:27.756Z,53.98
2019-05-03T23:06:29.580Z,53.90
2019-05-03T23:08:31.189Z,53.71
2019-05-03T23:10:34.756Z,53.67
2019-05-03T23:12:34.850Z,53.53
2019-05-03T23:14:36.080Z,53.84
2019-05-03T23:16:37.692Z,54.00
2019-05-03T23:18:39.317Z,54.01
2019-05-03T23:20:49.380Z,53.80
2019-05-03T23:22:50.964Z,54.14
2019-05-03T23:24:54.251Z,52.38
2019-05-03T23:26:54.208Z,51.33
2019-05-03T23:28:55.838Z,53.07
2019-05-03T23:30:57.413Z,52.77
2019-05-03T23:32:59.063Z,53.37
2019-05-03T23:35:00.671Z,53.63
2019-05-03T23:37:02.285Z,53.23
2019-05-03T23:39:05.152Z,52.67
2019-05-03T23:41:05.607Z,52.68
2019-05-03T23:43:07.196Z,52.88
2019-05-03T23:45:08.826Z,53.23
2019-05-03T23:47:11.143Z,53.31
2019-05-03T23:49:14.455Z,53.43
2019-05-03T23:51:30.092Z,53.03
2019-05-03T23:53:31.745Z,53.61
2019-05-03T23:55:34.590Z,52.69
2019-05-03T23:57:35.762Z,53.02
2019-05-03T23:59:37.252Z,53.25
